Time;durP1;ratioP1;P1;durP2;ratioP2;P2;SDS_P1;SDS_P2;PMS_P1;PMS_P2;Temp;Humidity;BMP_temperature;BMP_pressure;BME280_temperature;BME280_humidity;BME280_pressure;Samples;Min_cycle;Max_cycle;Signal;HPM_P1;HPM_P2
2022/02/11 00:02:15;;;;;;;8.07;5.53;;;;;;;9.55;60.50;95964.63;5059193;28;20220;-83
2022/02/11 00:05:02;;;;;;;6.57;5.00;;;;;;;9.54;60.82;95965.59;5064341;28;20201;-80
2022/02/11 00:07:29;;;;;;;6.27;5.63;;;;;;;9.55;60.48;95965.44;5065436;28;20221;-83
2022/02/11 00:09:56;;;;;;;7.73;5.23;;;;;;;9.59;60.58;95971.88;5058128;28;20190;-83
2022/02/11 00:12:22;;;;;;;7.90;5.40;;;;;;;9.66;60.39;95965.09;5060151;28;20197;-83
2022/02/11 00:14:57;;;;;;;6.90;4.90;;;;;;;9.68;61.04;95960.59;5058050;28;20201;-83
2022/02/11 00:17:25;;;;;;;6.07;5.40;;;;;;;9.68;60.86;95958.03;5059082;28;20217;-82
2022/02/11 00:19:52;;;;;;;7.93;5.57;;;;;;;9.72;60.88;95945.66;5057466;28;20220;-83
2022/02/11 00:22:18;;;;;;;7.40;5.33;;;;;;;9.71;61.59;95941.47;5058572;28;20205;-83
2022/02/11 00:24:44;;;;;;;7.27;5.20;;;;;;;9.69;61.47;95943.41;5057690;28;20201;-83
2022/02/11 00:27:47;;;;;;;5.63;5.13;;;;;;;9.72;61.58;95937.94;5058267;28;20228;-82
2022/02/11 00:33:07;;;;;;;6.97;5.27;;;;;;;9.74;61.85;95946.31;5045097;28;20892;-83
2022/02/11 00:35:40;;;;;;;7.27;5.10;;;;;;;9.72;62.97;95945.66;5051539;28;20276;-83
2022/02/11 00:38:12;;;;;;;5.80;4.83;;;;;;;9.73;62.82;95943.91;5057765;28;20217;-83
2022/02/11 00:41:09;;;;;;;6.80;5.43;;;;;;;9.68;63.59;95949.50;5059285;28;20212;-83
2022/02/11 00:44:24;;;;;;;7.10;5.10;;;;;;;9.65;63.94;95953.22;5058417;28;20285;-83
2022/02/11 00:47:01;;;;;;;7.33;5.30;;;;;;;9.64;64.84;95948.22;5054420;28;20252;-83
2022/02/11 01:03:17;;;;;;;7.20;5.80;;;;;;;9.48;67.25;95920.75;5054796;28;20223;-82
2022/02/11 01:05:46;;;;;;;7.30;5.67;;;;;;;9.45;67.50;95912.56;5052793;28;20233;-82
2022/02/11 01:08:12;;;;;;;7.53;5.27;;;;;;;9.45;68.04;95912.56;5054792;28;20217;-83
2022/02/11 01:10:39;;;;;;;5.67;4.90;;;;;;;9.46;67.73;95916.75;5053191;28;20213;-83
2022/02/11 01:13:06;;;;;;;6.40;4.97;;;;;;;9.43;68.10;95922.22;5054650;28;20198;-83
2022/02/11 01:15:35;;;;;;;8.43;5.57;;;;;;;9.43;68.41;95917.88;5053000;28;20247;-83
2022/02/11 01:18:04;;;;;;;6.53;5.20;;;;;;;9.41;68.71;95906.16;5054288;28;20292;-83
2022/02/11 01:20:44;;;;;;;7.60;5.90;;;;;;;9.40;67.97;95904.56;5053845;28;20220;-82
2022/02/11 01:23:20;;;;;;;8.93;5.17;;;;;;;9.38;68.19;95915.00;5051810;28;20205;-83
2022/02/11 01:26:09;;;;;;;6.23;5.10;;;;;;;9.40;67.98;95907.94;5056515;28;20233;-83
2022/02/11 01:29:08;;;;;;;8.27;5.33;;;;;;;9.32;68.72;95903.59;5056947;28;20221;-83
2022/02/11 01:31:49;;;;;;;8.23;5.20;;;;;;;9.37;68.41;95889.47;5054511;28;20232;-83
2022/02/11 01:34:37;;;;;;;6.33;5.33;;;;;;;9.40;68.29;95879.66;5056775;28;20208;-83
2022/02/11 01:37:21;;;;;;;8.83;5.43;;;;;;;9.43;68.29;95883.69;5056954;28;20305;-83
2022/02/11 01:46:27;;;;;;;6.90;5.23;;;;;;;9.46;69.04;95875.63;5009537;28;20241;-83
2022/02/11 01:49:17;;;;;;;6.33;5.20;;;;;;;9.40;69.08;95873.72;5048826;28;20223;-83
2022/02/11 01:51:51;;;;;;;7.30;5.50;;;;;;;9.47;68.13;95866.94;5057314;28;20263;-82
2022/02/11 01:54:35;;;;;;;8.03;5.00;;;;;;;9.50;68.04;95864.88;5055894;28;20813;-83
2022/02/11 01:57:09;;;;;;;9.70;5.50;;;;;;;9.49;68.77;95863.25;5055271;28;20248;-83
2022/02/11 02:03:04;;;;;;;7.17;5.70;;;;;;;9.53;69.03;95861.16;5051106;28;20216;-83
2022/02/11 02:22:23;;;;;;;7.93;5.70;;;;;;;9.46;70.60;95843.03;5034588;28;20734;-82
2022/02/11 02:25:00;;;;;;;8.60;5.77;;;;;;;9.33;71.19;95851.22;5050343;28;20202;-82
2022/02/11 02:27:43;;;;;;;8.70;5.40;;;;;;;9.27;71.62;95844.16;5052437;28;20225;-82
2022/02/11 02:36:13;;;;;;;10.33;5.90;;;;;;;9.15;73.71;95848.03;5063170;28;20221;-82
2022/02/11 02:38:52;;;;;;;6.67;5.90;;;;;;;9.10;74.90;95847.69;5060467;28;20221;-82
2022/02/11 02:57:58;;;;;;;7.33;5.43;;;;;;;8.76;79.24;95834.22;5057501;28;20308;-82
2022/02/11 03:14:50;;;;;;;6.37;5.50;;;;;;;8.51;82.68;95838.50;5057668;28;20205;-84
2022/02/11 03:50:50;;;;;;;4.20;3.80;;;;;;;8.25;85.04;95859.09;5053821;28;20216;-85
2022/02/11 03:56:30;;;;;;;4.77;3.20;;;;;;;8.09;85.80;95864.94;5055254;28;20309;-84
2022/02/11 04:21:31;;;;;;;2.80;1.80;;;;;;;7.95;86.81;95886.84;5050533;28;20201;-84
2022/02/11 04:56:58;;;;;;;2.40;2.20;;;;;;;7.59;87.22;95885.34;5057320;28;20616;-84
2022/02/11 04:59:38;;;;;;;2.83;2.00;;;;;;;7.68;86.13;95876.78;5056229;28;20209;-84
2022/02/11 05:02:06;;;;;;;2.43;2.23;;;;;;;7.77;85.18;95888.66;5055890;28;20308;-84
2022/02/11 05:04:32;;;;;;;2.40;2.17;;;;;;;7.71;85.77;95884.13;5050843;28;20232;-85
2022/02/11 05:07:00;;;;;;;2.20;1.90;;;;;;;7.72;84.59;95882.38;5038326;28;20234;-84
2022/02/11 05:09:28;;;;;;;2.43;2.03;;;;;;;7.63;85.77;95886.66;5038766;28;20218;-84
2022/02/11 05:11:55;;;;;;;2.03;1.83;;;;;;;7.63;86.56;95895.16;5039312;28;20229;-84
2022/02/11 05:14:21;;;;;;;2.50;2.30;;;;;;;7.73;86.36;95904.50;5038462;28;20198;-84
2022/02/11 05:16:48;;;;;;;2.40;2.17;;;;;;;7.84;85.96;95894.81;5037753;28;20221;-83
2022/02/11 05:19:14;;;;;;;2.40;2.20;;;;;;;7.87;85.01;95894.50;5043015;28;20209;-84
2022/02/11 05:21:40;;;;;;;2.40;2.20;;;;;;;7.77;85.83;95905.81;5050711;28;20798;-85
2022/02/11 05:24:07;;;;;;;2.67;1.90;;;;;;;7.80;86.22;95908.06;5050159;28;20202;-86
2022/02/11 05:26:35;;;;;;;2.47;2.13;;;;;;;7.65;86.71;95899.34;5050450;28;20225;-85
2022/02/11 05:29:01;;;;;;;2.40;2.20;;;;;;;7.74;86.21;95914.59;5046788;28;20225;-86
2022/02/11 05:31:27;;;;;;;2.87;2.13;;;;;;;7.72;86.55;95918.25;5053541;28;20197;-86
2022/02/11 05:33:54;;;;;;;3.17;2.00;;;;;;;7.63;86.42;95914.84;5053012;28;20197;-85
2022/02/11 05:36:20;;;;;;;2.57;2.37;;;;;;;7.68;87.42;95925.47;5052818;28;20278;-85
2022/02/11 05:38:47;;;;;;;3.13;2.33;;;;;;;7.71;87.20;95919.22;5052807;28;20240;-85
2022/02/11 05:41:13;;;;;;;2.50;2.30;;;;;;;7.76;87.29;95922.94;5053311;28;20228;-86
2022/02/11 05:43:41;;;;;;;3.37;2.40;;;;;;;7.85;86.98;95942.56;5047003;28;20201;-84
2022/02/11 05:46:09;;;;;;;3.43;2.37;;;;;;;7.87;88.86;95955.22;5045456;28;20221;-85
2022/02/11 05:48:38;;;;;;;5.23;3.93;;;;;;;7.87;86.05;95950.91;5046759;28;20218;-85
2022/02/11 05:51:05;;;;;;;5.73;5.13;;;;;;;7.68;85.49;95968.22;5051926;28;20235;-84
2022/02/11 05:53:32;;;;;;;6.27;5.67;;;;;;;7.52;86.00;95971.44;5045846;28;20201;-85
2022/02/11 05:55:58;;;;;;;7.60;6.33;;;;;;;7.44;86.01;95979.88;5038445;28;20248;-84
2022/02/11 05:58:25;;;;;;;7.20;6.50;;;;;;;7.50;85.22;95981.06;5036059;28;20217;-84
2022/02/11 06:00:53;;;;;;;8.83;6.77;;;;;;;7.44;85.72;95982.44;5037853;28;20657;-84
2022/02/11 06:03:19;;;;;;;8.63;7.23;;;;;;;7.44;86.32;95984.19;5043837;28;20208;-83
2022/02/11 06:05:45;;;;;;;8.10;7.30;;;;;;;7.50;85.29;95989.56;5048460;28;20223;-83
2022/02/11 06:08:12;;;;;;;11.33;7.30;;;;;;;7.40;85.28;95995.69;5052027;28;20646;-84
2022/02/11 06:10:39;;;;;;;10.20;7.43;;;;;;;7.34;84.02;96001.38;5055077;28;20664;-84
2022/02/11 06:13:05;;;;;;;8.10;7.03;;;;;;;7.31;84.75;96007.63;5057789;28;20208;-84
2022/02/11 06:15:32;;;;;;;9.00;7.20;;;;;;;7.32;83.90;96016.09;5057293;28;20233;-84
2022/02/11 06:18:00;;;;;;;7.47;6.70;;;;;;;7.29;83.62;96017.22;5044048;28;20221;-85
2022/02/11 06:20:28;;;;;;;6.97;6.37;;;;;;;7.34;83.87;96025.25;5052843;28;20205;-83
2022/02/11 06:22:57;;;;;;;7.30;6.50;;;;;;;7.37;83.12;96029.28;5057506;28;20198;-84
2022/02/11 06:25:24;;;;;;;7.30;6.30;;;;;;;7.35;83.92;96038.84;5057183;28;20233;-84
2022/02/11 06:27:51;;;;;;;6.63;6.03;;;;;;;7.31;83.38;96050.38;5055966;28;20222;-84
2022/02/11 06:30:17;;;;;;;6.77;6.07;;;;;;;7.33;83.77;96054.38;5049203;28;20209;-84
2022/02/11 06:32:44;;;;;;;6.53;5.83;;;;;;;7.33;83.52;96054.38;5057131;28;20216;-84
2022/02/11 06:35:12;;;;;;;6.77;6.00;;;;;;;7.18;84.06;96064.31;5056442;28;20240;-83
2022/02/11 06:37:41;;;;;;;6.10;5.30;;;;;;;7.05;84.10;96071.53;5057135;28;20704;-83
2022/02/11 06:40:09;;;;;;;6.33;5.70;;;;;;;6.98;84.98;96078.16;5056898;28;20239;-84
2022/02/11 06:42:36;;;;;;;6.97;5.40;;;;;;;6.95;86.48;96078.44;5056897;28;20201;-84
2022/02/11 06:45:03;;;;;;;21.37;17.23;;;;;;;6.90;85.96;96085.75;5046824;28;20234;-84
2022/02/11 06:47:30;;;;;;;7.00;6.30;;;;;;;6.94;86.20;96100.66;5051272;28;20644;-84
2022/02/11 06:49:56;;;;;;;6.07;5.27;;;;;;;6.97;86.29;96104.69;5051940;28;20331;-84
2022/02/11 06:52:24;;;;;;;6.20;5.00;;;;;;;7.00;85.12;96114.66;5049209;28;20200;-83
2022/02/11 06:54:50;;;;;;;5.00;4.50;;;;;;;6.90;85.29;96122.41;5051552;28;20201;-83
2022/02/11 06:57:17;;;;;;;5.40;4.90;;;;;;;6.84;85.83;96129.81;5044984;28;20680;-85
2022/02/11 06:59:44;;;;;;;4.77;4.27;;;;;;;6.69;85.14;96146.56;5057487;28;20208;-84
2022/02/11 07:02:16;;;;;;;5.20;4.03;;;;;;;6.52;85.93;96159.13;5056943;28;20214;-85
2022/02/11 07:04:46;;;;;;;4.33;3.93;;;;;;;6.58;84.55;96165.44;5055388;28;20201;-83
2022/02/11 07:07:13;;;;;;;4.07;3.73;;;;;;;6.59;84.76;96175.53;5056223;28;20201;-83
2022/02/11 07:09:40;;;;;;;4.17;3.70;;;;;;;6.58;85.29;96185.88;5055331;28;20224;-84
2022/02/11 07:12:08;;;;;;;6.67;3.60;;;;;;;6.54;84.76;96192.25;5056218;28;20252;-84
2022/02/11 07:14:34;;;;;;;4.00;3.60;;;;;;;6.58;83.29;96196.94;5042462;28;20198;-84
2022/02/11 07:17:01;;;;;;;3.90;3.60;;;;;;;6.49;84.10;96208.00;5045859;28;20751;-84
2022/02/11 07:19:28;;;;;;;4.10;3.70;;;;;;;6.55;83.48;96215.09;5046944;28;20222;-85
2022/02/11 07:21:55;;;;;;;4.00;3.60;;;;;;;6.64;83.57;96218.63;5052102;28;20197;-85
2022/02/11 07:24:21;;;;;;;4.03;3.63;;;;;;;6.65;83.27;96229.66;5054265;28;20200;-85
2022/02/11 07:26:49;;;;;;;4.70;3.97;;;;;;;6.74;82.46;96232.19;5052008;28;20236;-84
2022/02/11 07:29:16;;;;;;;5.27;4.03;;;;;;;6.78;83.06;96240.41;5053084;28;20228;-84
2022/02/11 07:31:42;;;;;;;5.80;4.10;;;;;;;6.83;83.12;96243.38;5053111;28;20219;-84
2022/02/11 07:34:09;;;;;;;4.80;4.30;;;;;;;6.84;82.18;96252.66;5053798;28;20600;-85
2022/02/11 07:36:35;;;;;;;3.90;3.60;;;;;;;6.72;82.26;96264.81;5055038;28;20588;-84
2022/02/11 07:39:01;;;;;;;3.67;3.37;;;;;;;6.55;83.19;96273.13;5054699;28;20221;-85
2022/02/11 07:41:28;;;;;;;4.43;3.47;;;;;;;6.50;83.39;96272.75;5058031;28;20219;-84
2022/02/11 07:43:59;;;;;;;3.43;3.13;;;;;;;6.53;82.87;96290.41;5056524;28;20266;-84
2022/02/11 07:46:26;;;;;;;3.20;2.90;;;;;;;6.48;82.41;96275.44;5054832;28;20225;-85
2022/02/11 07:48:53;;;;;;;3.50;3.20;;;;;;;6.46;83.02;96299.53;5054747;28;20232;-83
2022/02/11 07:51:19;;;;;;;3.80;3.50;;;;;;;6.41;83.71;96307.59;5055310;28;20201;-84
2022/02/11 07:53:46;;;;;;;2.83;2.63;;;;;;;6.32;84.36;96310.16;5054325;28;20216;-84
2022/02/11 07:56:12;;;;;;;3.00;2.70;;;;;;;6.29;83.71;96324.03;5054632;28;20257;-84
2022/02/11 07:58:39;;;;;;;2.63;2.43;;;;;;;6.31;83.64;96332.38;5054418;28;20217;-84
2022/02/11 08:01:07;;;;;;;13.20;10.33;;;;;;;6.32;83.24;96343.41;5049608;28;20197;-84
2022/02/11 08:03:34;;;;;;;3.50;3.20;;;;;;;6.30;81.54;96356.31;5054181;28;20213;-84
2022/02/11 08:06:00;;;;;;;2.10;2.00;;;;;;;6.34;81.57;96357.69;5049680;28;20684;-84
2022/02/11 08:08:31;;;;;;;2.30;2.10;;;;;;;6.24;80.97;96362.75;5041081;28;20225;-85
2022/02/11 08:10:57;;;;;;;2.00;1.90;;;;;;;6.15;82.11;96378.09;5054969;28;20703;-84
2022/02/11 08:13:24;;;;;;;2.20;2.00;;;;;;;6.08;81.23;96382.91;5054747;28;20205;-85
2022/02/11 08:15:51;;;;;;;2.57;2.37;;;;;;;6.05;81.74;96400.25;5053561;28;20526;-84
2022/02/11 08:18:19;;;;;;;2.57;2.27;;;;;;;6.02;80.88;96408.97;5054285;28;20222;-85
2022/02/11 08:20:45;;;;;;;2.13;2.00;;;;;;;6.06;81.49;96425.69;5053943;28;20193;-84
2022/02/11 08:23:12;;;;;;;2.40;2.10;;;;;;;6.04;82.06;96434.41;5053692;28;20201;-84
2022/02/11 08:25:38;;;;;;;2.20;2.00;;;;;;;6.05;80.72;96426.63;5053885;28;20229;-84
2022/02/11 08:28:05;;;;;;;2.00;1.90;;;;;;;6.04;80.19;96453.09;5053806;28;20217;-84
2022/02/11 08:30:31;;;;;;;1.73;1.63;;;;;;;6.09;80.68;96447.63;5053252;28;20278;-84
2022/02/11 08:32:58;;;;;;;2.50;2.30;;;;;;;6.05;81.81;96457.28;5053453;28;20778;-84
2022/02/11 08:35:26;;;;;;;2.20;2.10;;;;;;;6.13;80.01;96472.81;5053006;28;20229;-84
2022/02/11 08:37:52;;;;;;;2.20;2.00;;;;;;;6.02;80.52;96480.53;5052920;28;20209;-84
2022/02/11 08:40:18;;;;;;;2.30;2.10;;;;;;;5.96;79.78;96488.72;5051246;28;20198;-84
2022/02/11 08:42:45;;;;;;;2.27;2.00;;;;;;;5.94;80.26;96497.47;5054449;28;20663;-83
2022/02/11 08:45:11;;;;;;;2.00;1.90;;;;;;;6.03;79.53;96509.47;5052791;28;20236;-84
2022/02/11 08:47:38;;;;;;;2.27;1.97;;;;;;;6.14;78.87;96517.09;5051641;28;20251;-84
2022/02/11 08:50:06;;;;;;;2.07;1.97;;;;;;;6.08;79.63;96512.47;5049113;28;20217;-84
2022/02/11 08:52:35;;;;;;;2.10;2.00;;;;;;;6.11;79.45;96518.16;5052934;28;20198;-83
2022/02/11 08:55:01;;;;;;;2.20;2.10;;;;;;;6.18;79.44;96513.31;5047792;28;20190;-83
2022/02/11 08:57:29;;;;;;;2.40;2.20;;;;;;;6.21;79.01;96520.75;5041564;28;20285;-84
2022/02/11 08:59:57;;;;;;;2.57;2.10;;;;;;;6.19;77.46;96536.22;5050018;28;20190;-85
2022/02/11 09:02:24;;;;;;;1.93;1.83;;;;;;;6.23;77.90;96529.91;5049034;28;20874;-85
2022/02/11 09:04:51;;;;;;;2.77;2.37;;;;;;;6.19;78.84;96531.09;5054258;28;20251;-84
2022/02/11 09:07:18;;;;;;;2.40;2.20;;;;;;;6.28;78.71;96534.66;5054274;28;20206;-84
2022/02/11 09:09:46;;;;;;;2.60;2.40;;;;;;;6.17;77.52;96542.38;5055756;28;20217;-84
2022/02/11 09:12:13;;;;;;;2.60;2.40;;;;;;;6.11;80.17;96550.56;5055102;28;20198;-84
2022/02/11 09:14:39;;;;;;;2.30;2.10;;;;;;;6.16;78.12;96558.66;5053233;28;20198;-84
2022/02/11 09:17:06;;;;;;;2.50;2.30;;;;;;;6.11;78.75;96560.81;5053094;28;20315;-84
2022/02/11 09:19:32;;;;;;;2.10;2.00;;;;;;;6.16;77.47;96568.88;5053575;28;20217;-84
2022/02/11 09:21:58;;;;;;;33.80;25.20;;;;;;;6.15;77.61;96567.28;5053369;28;20201;-84
2022/02/11 09:24:25;;;;;;;6.70;5.87;;;;;;;6.27;77.84;96571.41;5052374;28;20212;-84
2022/02/11 09:26:53;;;;;;;2.80;2.60;;;;;;;6.26;77.72;96582.56;5053002;28;20225;-84
2022/02/11 09:29:19;;;;;;;4.23;2.60;;;;;;;6.38;79.83;96586.66;5053542;28;20237;-84
2022/02/11 09:31:47;;;;;;;2.80;2.60;;;;;;;6.48;78.35;96589.28;5053110;28;20210;-84
2022/02/11 09:34:13;;;;;;;2.80;2.60;;;;;;;6.64;78.00;96599.06;5053043;28;20607;-84
2022/02/11 09:36:40;;;;;;;2.87;2.63;;;;;;;6.82;77.21;96594.97;5050791;28;20286;-84
2022/02/11 09:39:08;;;;;;;2.97;2.60;;;;;;;6.81;76.44;96594.16;5050434;28;20736;-83
2022/02/11 09:41:39;;;;;;;2.80;2.60;;;;;;;6.86;75.14;96607.38;5052649;28;20202;-84
2022/02/11 09:44:08;;;;;;;3.50;2.40;;;;;;;6.71;73.77;96608.66;5041499;28;20198;-84
2022/02/11 09:46:36;;;;;;;3.07;2.77;;;;;;;6.77;74.53;96615.00;5049224;28;20299;-84
2022/02/11 09:49:03;;;;;;;2.90;2.70;;;;;;;6.69;72.63;96615.66;5048279;28;20226;-84
2022/02/11 09:51:30;;;;;;;2.63;2.43;;;;;;;6.89;70.57;96630.19;5050845;28;20194;-84
2022/02/11 09:53:56;;;;;;;2.87;2.67;;;;;;;6.87;70.51;96632.06;5063006;28;20177;-83
2022/02/11 09:56:23;;;;;;;2.87;2.53;;;;;;;6.73;67.93;96631.59;5053940;28;20225;-84
2022/02/11 09:58:50;;;;;;;2.77;2.40;;;;;;;6.98;69.39;96638.81;5050778;28;20245;-84
2022/02/11 10:01:19;;;;;;;3.03;2.73;;;;;;;7.08;69.51;96642.25;5054211;28;20200;-84
2022/02/11 10:03:47;;;;;;;2.97;2.67;;;;;;;7.09;68.81;96650.75;5055151;28;20221;-84
2022/02/11 10:06:13;;;;;;;2.70;2.40;;;;;;;7.15;67.66;96657.88;5053765;28;20643;-84
2022/02/11 10:08:41;;;;;;;3.23;2.90;;;;;;;7.08;67.97;96661.94;5054017;28;20228;-84
2022/02/11 10:11:09;;;;;;;2.80;2.60;;;;;;;7.06;66.95;96669.72;5053683;28;20295;-84
2022/02/11 10:13:39;;;;;;;2.60;2.37;;;;;;;6.96;66.73;96668.03;5052742;28;20189;-84
2022/02/11 10:16:09;;;;;;;2.40;2.20;;;;;;;6.92;65.64;96672.63;5053709;28;20252;-83
2022/02/11 10:18:39;;;;;;;2.57;2.37;;;;;;;6.91;67.11;96673.56;5052614;28;20419;-84
2022/02/11 10:21:06;;;;;;;2.40;2.20;;;;;;;6.92;66.41;96682.88;5052405;28;20669;-84
2022/02/11 10:23:36;;;;;;;2.27;2.17;;;;;;;6.90;66.06;96683.00;5053637;28;20201;-84
2022/02/11 10:26:09;;;;;;;3.53;2.67;;;;;;;6.91;66.20;96686.38;5046712;28;20284;-84
2022/02/11 10:28:39;;;;;;;2.30;2.13;;;;;;;6.75;65.50;96691.91;5055251;28;20259;-85
2022/02/11 10:31:08;;;;;;;2.77;2.23;;;;;;;6.80;63.82;96694.91;5053422;28;20229;-84
2022/02/11 10:33:59;;;;;;;4.20;2.30;;;;;;;6.69;61.36;96689.88;5053165;28;20251;-84
2022/02/11 10:36:27;;;;;;;2.30;2.10;;;;;;;6.86;61.89;96704.66;5053592;28;20233;-85
2022/02/11 10:39:12;;;;;;;2.50;2.30;;;;;;;6.93;59.40;96700.66;5053807;28;20230;-84
2022/02/11 10:41:42;;;;;;;2.40;2.20;;;;;;;7.01;60.21;96700.03;5053092;28;20208;-83
2022/02/11 10:44:11;;;;;;;2.23;2.00;;;;;;;7.16;59.81;96698.75;5054304;28;20546;-85
2022/02/11 10:46:40;;;;;;;2.20;2.00;;;;;;;7.72;59.59;96707.72;5052231;28;20252;-84
2022/02/11 10:49:08;;;;;;;4.03;2.87;;;;;;;8.04;57.59;96702.41;5051763;28;20223;-84
2022/02/11 10:51:39;;;;;;;3.40;2.47;;;;;;;7.74;57.08;96711.75;5036486;28;20205;-85
2022/02/11 10:54:24;;;;;;;3.00;2.50;;;;;;;7.52;57.68;96706.84;5042642;28;20233;-85
2022/02/11 10:56:52;;;;;;;2.67;2.47;;;;;;;7.36;57.90;96709.88;5056983;28;20415;-85
2022/02/11 10:59:26;;;;;;;3.27;2.33;;;;;;;7.30;57.08;96699.34;5057059;28;20225;-84
2022/02/11 11:01:54;;;;;;;3.87;2.57;;;;;;;7.10;58.39;96706.97;5056569;28;20235;-84
2022/02/11 11:04:21;;;;;;;2.93;2.40;;;;;;;7.13;58.35;96716.09;5056170;28;20190;-84
2022/02/11 11:06:49;;;;;;;4.13;2.60;;;;;;;7.25;56.99;96720.22;5054189;28;20224;-84
2022/02/11 11:09:16;;;;;;;3.27;2.60;;;;;;;7.31;56.06;96704.34;5054271;28;20639;-85
2022/02/11 11:11:44;;;;;;;2.73;2.50;;;;;;;7.34;55.90;96714.31;5052304;28;20194;-85
2022/02/11 11:14:13;;;;;;;2.47;2.20;;;;;;;7.53;55.07;96704.16;5053358;28;20205;-83
2022/02/11 11:16:42;;;;;;;2.70;2.50;;;;;;;7.91;54.91;96702.63;5039544;28;20214;-84
2022/02/11 11:19:09;;;;;;;3.20;2.90;;;;;;;8.22;53.91;96690.53;5041237;28;20260;-84
2022/02/11 11:21:39;;;;;;;3.67;3.30;;;;;;;8.46;53.21;96701.22;5050620;28;20307;-84
2022/02/11 11:24:06;;;;;;;3.13;2.30;;;;;;;8.66;52.47;96709.69;5053957;28;20228;-83
2022/02/11 11:26:38;;;;;;;3.27;2.20;;;;;;;8.56;52.04;96699.47;5056414;28;20225;-84
2022/02/11 11:29:08;;;;;;;2.97;2.27;;;;;;;8.71;53.17;96699.03;5056520;28;20217;-84
2022/02/11 11:31:34;;;;;;;2.63;2.17;;;;;;;8.46;51.94;96697.84;5058132;28;20275;-84
2022/02/11 11:34:32;;;;;;;2.43;2.23;;;;;;;8.13;52.37;96693.88;5049954;28;20202;-84
2022/02/11 11:37:07;;;;;;;3.70;2.23;;;;;;;8.40;52.41;96683.00;5049192;28;20495;-85
2022/02/11 11:39:35;;;;;;;3.07;2.47;;;;;;;8.74;55.87;96684.16;5054853;28;20217;-84
2022/02/11 11:42:10;;;;;;;2.37;2.10;;;;;;;9.15;52.34;96693.25;5057321;28;20700;-84
2022/02/11 11:44:46;;;;;;;3.87;1.93;;;;;;;9.29;50.41;96687.66;5054589;28;20704;-84
2022/02/11 11:47:16;;;;;;;3.70;2.10;;;;;;;9.27;48.49;96693.88;5055280;28;20297;-84
2022/02/11 11:49:49;;;;;;;2.20;1.60;;;;;;;9.10;49.22;96699.75;5051343;28;20217;-84
2022/02/11 11:52:17;;;;;;;3.57;1.70;;;;;;;8.93;48.09;96693.59;5056122;28;20201;-84
2022/02/11 11:54:44;;;;;;;6.00;1.90;;;;;;;8.69;48.18;96688.91;5056725;28;20201;-84
2022/02/11 11:57:14;;;;;;;2.77;2.07;;;;;;;8.59;49.16;96683.78;5049215;28;20265;-84
2022/02/11 11:59:44;;;;;;;2.17;1.80;;;;;;;8.65;49.59;96680.69;5049972;28;20244;-85
2022/02/11 12:02:13;;;;;;;3.03;1.70;;;;;;;8.81;50.01;96676.72;5056698;28;20248;-84
2022/02/11 12:04:51;;;;;;;3.47;1.87;;;;;;;8.83;48.46;96682.53;5037127;28;20198;-84
2022/02/11 12:07:21;;;;;;;2.77;1.73;;;;;;;8.93;49.23;96675.59;5044424;28;20221;-84
2022/02/11 12:09:49;;;;;;;2.20;2.00;;;;;;;8.68;48.50;96686.47;5059750;28;20205;-84
2022/02/11 12:12:18;;;;;;;3.37;1.87;;;;;;;8.65;48.78;96678.13;5059237;28;20202;-85
2022/02/11 12:14:46;;;;;;;1.70;1.60;;;;;;;8.88;48.38;96670.06;5058599;28;20548;-84
2022/02/11 12:17:17;;;;;;;3.33;1.63;;;;;;;9.21;48.42;96677.28;5059803;28;20201;-85
2022/02/11 12:19:45;;;;;;;3.67;1.70;;;;;;;9.31;46.52;96684.94;5054452;28;20224;-85
2022/02/11 12:22:13;;;;;;;3.40;1.97;;;;;;;9.33;45.95;96680.47;5039171;28;20571;-85
2022/02/11 12:27:31;;;;;;;2.00;1.80;;;;;;;9.42;45.31;96689.13;5067912;28;20289;-86
2022/02/11 12:29:59;;;;;;;5.00;2.00;;;;;;;9.61;47.03;96683.88;5068673;28;20284;-87
2022/02/11 12:32:27;;;;;;;3.33;2.10;;;;;;;9.24;46.05;96694.16;5060600;28;20201;-86
2022/02/11 12:34:56;;;;;;;2.10;1.57;;;;;;;9.35;47.36;96696.56;5058834;28;20201;-86
2022/02/11 12:37:23;;;;;;;2.30;1.60;;;;;;;9.37;46.17;96689.53;5059049;28;20201;-85
2022/02/11 12:40:01;;;;;;;2.00;1.50;;;;;;;9.11;45.89;96694.47;5058818;28;20201;-86
2022/02/11 12:42:28;;;;;;;2.60;1.73;;;;;;;8.94;46.92;96696.03;5049639;28;20200;-87
2022/02/11 12:44:54;;;;;;;2.03;1.60;;;;;;;8.73;47.67;96697.94;5057648;28;20209;-85
2022/02/11 12:47:21;;;;;;;3.87;1.80;;;;;;;8.56;48.48;96696.06;5056345;28;20231;-85
2022/02/11 12:49:51;;;;;;;1.57;1.20;;;;;;;8.38;48.06;96697.72;5057081;28;20232;-85
2022/02/11 12:52:22;;;;;;;3.13;1.40;;;;;;;8.51;48.20;96706.75;5058759;28;20228;-87
2022/02/11 12:55:10;;;;;;;2.50;1.50;;;;;;;8.62;47.62;96693.78;5057820;28;20197;-85
2022/02/11 12:57:38;;;;;;;1.87;1.50;;;;;;;8.54;47.66;96695.41;5059766;28;20197;-85
2022/02/11 13:00:06;;;;;;;2.40;1.80;;;;;;;8.47;47.05;96699.44;5058090;28;20197;-84
2022/02/11 13:02:35;;;;;;;5.50;1.77;;;;;;;8.41;47.82;96705.13;5058575;28;20205;-85
2022/02/11 13:05:13;;;;;;;3.33;1.50;;;;;;;8.28;47.85;96693.34;5057967;28;20205;-84
2022/02/11 13:07:41;;;;;;;3.53;1.50;;;;;;;8.28;46.71;96693.34;5057715;28;20205;-84
2022/02/11 13:10:12;;;;;;;1.97;1.47;;;;;;;8.26;47.13;96700.41;5051424;28;20521;-84
2022/02/11 13:12:40;;;;;;;3.87;1.47;;;;;;;8.21;46.70;96689.72;5056136;28;20218;-84
2022/02/11 13:15:09;;;;;;;2.77;1.67;;;;;;;8.42;46.97;96692.19;5055501;28;20238;-85
2022/02/11 13:17:35;;;;;;;2.70;1.70;;;;;;;8.66;46.31;96702.81;5057252;28;20665;-84
2022/02/11 13:20:12;;;;;;;2.37;1.30;;;;;;;8.57;46.09;96701.06;5058471;28;20209;-84
2022/02/11 13:22:40;;;;;;;2.13;1.50;;;;;;;8.47;47.20;96697.69;5057658;28;20193;-84
2022/02/11 13:25:10;;;;;;;2.07;1.30;;;;;;;8.43;47.36;96701.50;5056803;28;20236;-85
2022/02/11 13:27:48;;;;;;;3.00;1.40;;;;;;;8.33;47.58;96716.06;5055809;28;20193;-85
2022/02/11 13:30:22;;;;;;;2.70;1.50;;;;;;;8.20;48.36;96712.94;5055911;28;20256;-85
2022/02/11 13:32:49;;;;;;;3.50;1.50;;;;;;;8.13;48.57;96714.41;5052784;28;20237;-84
2022/02/11 13:35:16;;;;;;;32.50;23.03;;;;;;;8.12;48.51;96708.47;5051445;28;20233;-86
2022/02/11 13:37:45;;;;;;;19.47;14.13;;;;;;;8.03;49.31;96719.53;5052645;28;20189;-84
2022/02/11 13:40:21;;;;;;;3.77;2.77;;;;;;;8.11;49.46;96721.41;5052814;28;20197;-85
2022/02/11 13:43:00;;;;;;;2.43;1.83;;;;;;;8.16;49.78;96720.09;5039591;28;20289;-84
2022/02/11 13:45:28;;;;;;;2.83;1.40;;;;;;;8.22;48.84;96723.88;5041059;28;20252;-86
2022/02/11 13:48:07;;;;;;;3.87;1.60;;;;;;;8.25;49.43;96728.75;5056247;28;20233;-86
2022/02/11 13:50:34;;;;;;;2.87;1.60;;;;;;;8.17;49.48;96731.97;5056677;28;20217;-85
2022/02/11 13:53:03;;;;;;;2.50;1.50;;;;;;;8.12;49.52;96734.13;5056035;28;21671;-84
2022/02/11 13:55:31;;;;;;;1.40;1.30;;;;;;;8.16;49.10;96732.91;5056068;28;20228;-86
2022/02/11 13:57:58;;;;;;;3.80;1.70;;;;;;;8.00;49.49;96729.25;5058153;28;20245;-85
2022/02/11 14:00:33;;;;;;;3.90;1.60;;;;;;;7.82;48.74;96734.19;5055972;28;20209;-85
2022/02/11 14:02:59;;;;;;;2.97;1.50;;;;;;;7.73;48.86;96740.91;5057005;28;20204;-85
2022/02/11 14:05:29;;;;;;;3.53;1.40;;;;;;;7.57;49.22;96740.59;5054986;28;20221;-84
2022/02/11 14:07:57;;;;;;;14.93;10.43;;;;;;;7.53;48.85;96742.59;5056403;28;20232;-84
2022/02/11 14:10:25;;;;;;;4.87;2.77;;;;;;;7.38;48.16;96738.75;5054617;28;20204;-84
2022/02/11 14:13:06;;;;;;;4.93;1.37;;;;;;;7.46;48.54;96750.94;5055437;28;20692;-84
2022/02/11 14:15:33;;;;;;;2.20;1.30;;;;;;;7.52;49.16;96758.09;5054149;28;20225;-84
2022/02/11 14:18:00;;;;;;;3.80;1.40;;;;;;;7.55;48.94;96750.97;5055048;28;20217;-84
2022/02/11 14:20:26;;;;;;;3.13;1.50;;;;;;;7.64;49.01;96754.50;5055024;28;20216;-84
2022/02/11 14:22:52;;;;;;;1.67;1.23;;;;;;;7.73;48.74;96769.09;5056484;28;20198;-83
2022/02/11 14:25:19;;;;;;;2.33;1.40;;;;;;;7.68;49.21;96765.31;5055231;28;20235;-85
2022/02/11 14:27:45;;;;;;;4.57;1.53;;;;;;;7.53;49.37;96768.22;5057502;28;20225;-86
2022/02/11 14:30:13;;;;;;;1.43;1.27;;;;;;;7.59;48.80;96769.47;5058659;28;20889;-84
2022/02/11 14:32:40;;;;;;;3.10;1.40;;;;;;;7.71;49.42;96776.09;5060483;28;20205;-84
2022/02/11 14:35:07;;;;;;;1.80;1.40;;;;;;;7.72;48.93;96774.34;5058988;28;20244;-85
2022/02/11 14:37:33;;;;;;;3.60;1.30;;;;;;;7.73;48.96;96787.03;5058806;28;20201;-86
2022/02/11 14:40:00;;;;;;;2.27;1.30;;;;;;;7.49;48.39;96784.81;5058077;28;20626;-84
2022/02/11 14:42:26;;;;;;;1.53;1.30;;;;;;;7.44;48.61;96784.38;5060155;28;20193;-84
2022/02/11 14:44:54;;;;;;;2.50;1.33;;;;;;;7.43;48.86;96787.88;5058168;28;20201;-85
2022/02/11 14:47:21;;;;;;;3.23;1.70;;;;;;;7.49;49.60;96789.94;5058267;28;20201;-84
2022/02/11 14:49:48;;;;;;;2.83;1.40;;;;;;;7.62;49.33;96790.53;5058326;28;20275;-84